createdAt,value
2022-11-10T00:02:24.497Z,2.22
2022-11-10T00:05:29.413Z,2.00
2022-11-10T00:08:33.903Z,2.08
2022-11-10T00:11:38.356Z,2.50
2022-11-10T00:15:00.932Z,2.20
2022-11-10T00:18:05.549Z,2.35
2022-11-10T00:21:11.417Z,1.80
2022-11-10T00:24:15.547Z,2.55
2022-11-10T00:27:20.065Z,2.10
2022-11-10T00:30:24.128Z,1.92
2022-11-10T00:33:28.385Z,2.13
2022-11-10T00:36:34.211Z,3.17
2022-11-10T00:39:38.672Z,1.70
2022-11-10T00:42:43.262Z,2.20
2022-11-10T00:45:47.776Z,1.88
2022-11-10T00:48:52.080Z,2.65
2022-11-10T00:51:56.488Z,2.03
2022-11-10T00:55:00.847Z,1.77
2022-11-10T00:58:05.214Z,2.40
2022-11-10T01:01:10.860Z,3.00
2022-11-10T01:04:15.228Z,2.57
2022-11-10T01:07:19.408Z,2.30
2022-11-10T01:10:23.794Z,2.55
2022-11-10T01:13:28.184Z,2.03
2022-11-10T01:16:32.887Z,2.80
2022-11-10T01:19:36.959Z,2.60
2022-11-10T01:22:41.186Z,2.65
2022-11-10T01:25:45.925Z,2.25
2022-11-10T01:28:50.506Z,2.20
2022-11-10T01:31:54.819Z,3.10
2022-11-10T01:34:59.110Z,3.17
2022-11-10T01:38:03.540Z,2.70
2022-11-10T01:41:09.486Z,2.07
2022-11-10T01:44:25.758Z,2.40
2022-11-10T01:47:30.067Z,2.80
2022-11-10T01:50:38.971Z,2.53
2022-11-10T01:53:46.446Z,2.90
2022-11-10T01:56:57.317Z,2.57
2022-11-10T02:00:02.117Z,2.40
2022-11-10T02:03:39.444Z,2.70
2022-11-10T02:06:46.796Z,2.57
2022-11-10T02:09:53.412Z,2.80
2022-11-10T02:12:57.320Z,3.10
2022-11-10T02:16:01.967Z,2.83
2022-11-10T02:19:18.516Z,3.47
2022-11-10T02:22:22.895Z,2.90
2022-11-10T02:25:32.481Z,2.83
2022-11-10T02:28:38.155Z,2.80
2022-11-10T02:31:42.597Z,3.23
2022-11-10T02:34:47.544Z,3.17
2022-11-10T02:37:52.037Z,2.90
2022-11-10T02:40:56.308Z,2.50
2022-11-10T02:44:01.088Z,3.37
2022-11-10T02:47:05.871Z,3.20
2022-11-10T02:50:10.428Z,3.23
2022-11-10T02:53:14.698Z,3.40
2022-11-10T02:56:19.175Z,2.80
2022-11-10T02:59:23.596Z,3.20
2022-11-10T03:02:32.119Z,2.67
2022-11-10T03:05:36.653Z,2.93
2022-11-10T03:08:41.230Z,3.40
2022-11-10T03:11:45.521Z,3.37
2022-11-10T03:14:50.066Z,2.87
2022-11-10T03:17:55.230Z,3.23
2022-11-10T03:20:59.447Z,2.80
2022-11-10T03:24:04.101Z,3.40
2022-11-10T03:27:08.428Z,3.23
2022-11-10T03:30:13.252Z,3.33
2022-11-10T03:33:17.583Z,2.70
2022-11-10T03:36:21.984Z,3.00
2022-11-10T03:39:26.376Z,3.00
2022-11-10T03:42:30.752Z,3.17
2022-11-10T03:45:35.351Z,3.13
2022-11-10T03:48:39.794Z,2.97
2022-11-10T03:51:44.280Z,3.10
2022-11-10T03:54:48.479Z,3.57
2022-11-10T03:57:52.988Z,3.17
2022-11-10T04:00:58.171Z,3.33
2022-11-10T04:04:02.487Z,2.73
2022-11-10T04:07:26.708Z,2.90
2022-11-10T04:10:31.201Z,2.53
2022-11-10T04:13:54.023Z,3.83
2022-11-10T04:16:58.604Z,2.97
2022-11-10T04:20:03.924Z,3.00
2022-11-10T04:23:26.885Z,2.83
2022-11-10T04:26:32.776Z,3.27
2022-11-10T04:29:37.086Z,3.63
2022-11-10T04:32:41.648Z,3.20
2022-11-10T04:35:46.066Z,3.33
2022-11-10T04:38:50.672Z,2.90
2022-11-10T04:41:59.748Z,3.50
2022-11-10T04:45:07.051Z,2.97
2022-11-10T04:48:11.319Z,2.67
2022-11-10T04:51:17.163Z,3.07
2022-11-10T04:54:21.772Z,2.97
2022-11-10T04:57:26.257Z,2.70
2022-11-10T05:00:30.801Z,2.50
2022-11-10T05:03:35.273Z,2.63
2022-11-10T05:06:39.654Z,2.70
2022-11-10T05:09:44.124Z,3.13
2022-11-10T05:12:48.800Z,2.70
2022-11-10T05:15:54.042Z,2.47
2022-11-10T05:18:58.307Z,3.10
2022-11-10T05:22:02.847Z,2.40
2022-11-10T05:25:08.506Z,3.43
2022-11-10T05:28:13.610Z,2.57
2022-11-10T05:31:18.111Z,3.27
2022-11-10T05:34:23.138Z,3.63
2022-11-10T05:37:27.695Z,3.03
2022-11-10T05:40:33.230Z,2.63
2022-11-10T05:43:37.296Z,2.80
2022-11-10T05:46:42.691Z,3.83
2022-11-10T05:49:55.868Z,3.93
2022-11-10T05:53:01.476Z,4.47
2022-11-10T05:56:06.372Z,4.03
2022-11-10T05:59:10.731Z,4.10
2022-11-10T06:02:15.494Z,3.63
2022-11-10T06:05:19.802Z,3.53
2022-11-10T06:08:24.176Z,4.13
2022-11-10T06:11:28.356Z,3.80
2022-11-10T06:14:32.777Z,3.77
2022-11-10T06:17:40.885Z,2.97
2022-11-10T06:20:47.286Z,3.00
2022-11-10T06:23:51.858Z,3.10
2022-11-10T06:26:56.159Z,3.27
2022-11-10T06:30:00.614Z,3.70
2022-11-10T06:33:05.054Z,3.40
2022-11-10T06:36:09.806Z,2.80
2022-11-10T06:39:14.419Z,3.30
2022-11-10T06:42:19.002Z,2.87
2022-11-10T06:45:23.800Z,2.60
2022-11-10T06:48:27.786Z,3.10
2022-11-10T06:51:32.568Z,3.30
2022-11-10T06:54:36.979Z,2.50
2022-11-10T06:57:41.158Z,2.77
2022-11-10T07:00:45.870Z,2.73
2022-11-10T07:04:17.535Z,2.90
2022-11-10T07:07:14.980Z,2.97
2022-11-10T07:10:19.186Z,2.70
2022-11-10T07:13:24.230Z,3.20
2022-11-10T07:16:29.307Z,3.10
2022-11-10T07:19:33.763Z,3.17
2022-11-10T07:22:38.208Z,2.90
2022-11-10T07:25:42.465Z,3.77
2022-11-10T07:28:47.070Z,2.97
2022-11-10T07:31:52.133Z,3.50
2022-11-10T07:34:56.604Z,3.20
2022-11-10T07:38:07.333Z,2.90
2022-11-10T07:41:11.656Z,3.10
2022-11-10T07:44:16.088Z,3.00
2022-11-10T07:47:20.514Z,3.13
2022-11-10T07:50:24.905Z,2.70
2022-11-10T07:53:29.459Z,3.37
2022-11-10T07:56:33.820Z,2.20
2022-11-10T07:59:38.297Z,3.10
2022-11-10T08:02:42.436Z,3.20
2022-11-10T08:05:47.264Z,3.40
2022-11-10T08:08:51.724Z,3.20
2022-11-10T08:11:56.143Z,3.53
2022-11-10T08:15:00.833Z,2.90
2022-11-10T08:18:09.718Z,3.50
2022-11-10T08:21:14.195Z,2.53
2022-11-10T08:24:18.706Z,3.00
2022-11-10T08:27:23.144Z,3.00
2022-11-10T08:30:28.809Z,2.80
2022-11-10T08:33:33.617Z,3.37
2022-11-10T08:36:38.300Z,3.53
2022-11-10T08:39:42.581Z,2.67
2022-11-10T08:42:47.923Z,3.63
2022-11-10T08:45:55.770Z,3.23
2022-11-10T08:49:00.175Z,3.50
2022-11-10T08:52:05.049Z,2.60
2022-11-10T08:55:09.578Z,2.80
2022-11-10T08:58:16.083Z,2.90
2022-11-10T09:01:21.299Z,2.55
2022-11-10T09:04:25.740Z,3.17
2022-11-10T09:07:31.300Z,3.20
2022-11-10T09:10:44.475Z,2.80
2022-11-10T09:13:48.816Z,2.70
2022-11-10T09:16:53.168Z,2.60
2022-11-10T09:19:57.841Z,2.83
2022-11-10T09:23:13.375Z,3.13
2022-11-10T09:26:17.559Z,3.08
2022-11-10T09:29:22.974Z,3.05
2022-11-10T09:32:27.475Z,2.80
2022-11-10T09:35:31.925Z,2.55
2022-11-10T09:38:37.468Z,3.22
2022-11-10T09:41:45.582Z,3.22
2022-11-10T09:45:01.556Z,2.38
2022-11-10T09:48:31.063Z,2.58
2022-11-10T09:51:48.184Z,3.35
2022-11-10T09:55:10.037Z,2.30
2022-11-10T09:58:18.545Z,2.72
2022-11-10T10:01:47.347Z,2.90
2022-11-10T10:05:32.533Z,2.47
2022-11-10T10:08:50.581Z,2.40
2022-11-10T10:12:05.132Z,2.50
2022-11-10T10:15:17.611Z,2.45
2022-11-10T10:18:41.894Z,2.30
2022-11-10T10:22:12.608Z,1.70
2022-11-10T10:25:23.742Z,2.60
2022-11-10T10:28:38.811Z,2.40
2022-11-10T10:31:47.364Z,2.08
2022-11-10T10:34:51.743Z,2.10
2022-11-10T10:37:57.711Z,2.40
2022-11-10T10:41:13.755Z,2.78
2022-11-10T10:44:19.778Z,2.65
2022-11-10T10:47:37.130Z,1.92
2022-11-10T10:50:43.160Z,2.20
2022-11-10T10:53:48.184Z,3.10
2022-11-10T10:57:21.566Z,2.45
2022-11-10T11:00:26.507Z,1.80
2022-11-10T11:03:41.158Z,2.08
2022-11-10T11:07:06.061Z,1.83
2022-11-10T11:10:30.956Z,1.75
2022-11-10T11:13:35.703Z,2.22
2022-11-10T11:16:53.231Z,1.98
2022-11-10T11:20:00.061Z,1.55
2022-11-10T11:23:27.898Z,2.50
2022-11-10T11:27:18.812Z,1.67
2022-11-10T11:30:24.980Z,2.38
2022-11-10T11:33:42.674Z,2.25
2022-11-10T11:37:19.891Z,2.35
2022-11-10T11:40:45.464Z,2.15
2022-11-10T11:44:14.567Z,1.70
2022-11-10T11:47:36.979Z,2.15
2022-11-10T11:51:02.957Z,1.85
2022-11-10T11:54:35.487Z,1.75
2022-11-10T11:58:13.316Z,3.28
2022-11-10T12:01:35.858Z,2.53
2022-11-10T12:05:33.801Z,2.00
2022-11-10T12:09:09.477Z,1.63
2022-11-10T12:12:25.958Z,1.83
2022-11-10T12:15:35.988Z,1.60
2022-11-10T12:18:58.939Z,1.65
2022-11-10T12:22:17.890Z,1.83
2022-11-10T12:25:40.613Z,1.63
2022-11-10T12:28:59.784Z,1.60
2022-11-10T12:32:37.389Z,2.50
2022-11-10T12:35:46.141Z,2.58
2022-11-10T12:39:11.784Z,1.60
2022-11-10T12:42:21.218Z,2.05
2022-11-10T12:45:33.802Z,2.08
2022-11-10T12:49:31.110Z,1.75
2022-11-10T12:52:47.150Z,1.85
2022-11-10T12:56:07.683Z,1.55
2022-11-10T12:59:21.149Z,2.20
2022-11-10T13:02:37.930Z,1.98
2022-11-10T13:05:45.348Z,1.80
2022-11-10T13:08:50.631Z,1.70
2022-11-10T13:12:04.656Z,1.73
2022-11-10T13:15:36.696Z,1.75
2022-11-10T13:18:41.205Z,1.48
2022-11-10T13:21:51.672Z,1.40
2022-11-10T13:25:34.602Z,1.38
2022-11-10T13:28:48.410Z,1.60
2022-11-10T13:31:56.071Z,1.55
2022-11-10T13:35:28.157Z,1.55
2022-11-10T13:38:32.590Z,1.52
2022-11-10T13:42:02.215Z,1.88
2022-11-10T13:45:38.677Z,1.92
2022-11-10T13:49:15.460Z,1.88
2022-11-10T13:52:34.291Z,1.55
2022-11-10T13:56:21.093Z,1.70
2022-11-10T13:59:28.830Z,2.20
2022-11-10T14:02:39.235Z,1.60
2022-11-10T14:06:03.391Z,1.58
2022-11-10T14:09:29.127Z,1.95
2022-11-10T14:12:41.368Z,2.03
2022-11-10T14:15:48.271Z,1.67
2022-11-10T14:19:34.986Z,1.50
2022-11-10T14:22:44.373Z,1.33
2022-11-10T14:25:57.496Z,2.03
2022-11-10T14:29:28.553Z,1.70
2022-11-10T14:32:32.795Z,1.42
2022-11-10T14:36:02.009Z,1.42
2022-11-10T14:39:07.304Z,1.40
2022-11-10T14:42:18.583Z,1.88
2022-11-10T14:45:28.137Z,1.30
2022-11-10T14:48:37.832Z,2.15
2022-11-10T14:51:42.418Z,1.42
2022-11-10T14:54:47.647Z,1.50
2022-11-10T14:58:03.182Z,1.63
2022-11-10T15:01:20.629Z,1.45
2022-11-10T15:04:31.720Z,1.63
2022-11-10T15:07:36.339Z,2.53
2022-11-10T15:10:40.695Z,1.67
2022-11-10T15:13:45.173Z,1.50
2022-11-10T15:17:03.039Z,1.40
2022-11-10T15:20:30.031Z,1.90
2022-11-10T15:23:38.075Z,1.30
2022-11-10T15:26:42.251Z,1.60
2022-11-10T15:29:47.907Z,1.33
2022-11-10T15:32:52.652Z,1.67
2022-11-10T15:36:17.608Z,1.48
2022-11-10T15:39:26.758Z,1.10
2022-11-10T15:42:31.335Z,1.30
2022-11-10T15:45:36.671Z,1.33
2022-11-10T15:48:47.376Z,1.38
2022-11-10T15:51:54.880Z,1.50
2022-11-10T15:54:58.945Z,1.30
2022-11-10T15:58:03.313Z,1.30
2022-11-10T16:01:11.319Z,0.95
2022-11-10T16:04:15.901Z,1.00
2022-11-10T16:07:21.247Z,1.13
2022-11-10T16:10:28.123Z,1.58
2022-11-10T16:13:32.813Z,1.30
2022-11-10T16:16:36.765Z,0.90
2022-11-10T16:19:41.323Z,1.27
2022-11-10T16:22:45.921Z,1.02
2022-11-10T16:25:53.007Z,1.52
2022-11-10T16:28:57.161Z,1.83
2022-11-10T16:32:01.565Z,1.60
2022-11-10T16:35:06.324Z,1.60
2022-11-10T16:38:22.049Z,1.38
2022-11-10T16:41:26.762Z,1.50
2022-11-10T16:44:31.176Z,1.55
2022-11-10T16:47:35.437Z,1.85
2022-11-10T16:50:40.055Z,1.80
2022-11-10T16:53:44.874Z,1.70
2022-11-10T16:56:49.147Z,1.90
2022-11-10T16:59:53.524Z,2.05
2022-11-10T17:03:11.340Z,2.22
2022-11-10T17:06:16.487Z,2.42
2022-11-10T17:09:26.689Z,2.75
2022-11-10T17:12:31.457Z,3.20
2022-11-10T17:15:35.517Z,3.60
2022-11-10T17:18:40.242Z,3.78
2022-11-10T17:21:45.322Z,4.82
2022-11-10T17:24:54.970Z,8.82
2022-11-10T17:27:59.803Z,36.22
2022-11-10T17:31:04.275Z,52.60
2022-11-10T17:34:08.566Z,59.92
2022-11-10T17:37:13.941Z,68.47
2022-11-10T17:40:23.851Z,72.38
2022-11-10T17:43:28.127Z,70.60
2022-11-10T17:46:32.585Z,71.18
2022-11-10T17:49:36.888Z,68.43
2022-11-10T17:52:42.046Z,69.97
2022-11-10T17:55:47.959Z,60.95
2022-11-10T17:58:53.553Z,62.95
2022-11-10T18:01:58.275Z,57.83
2022-11-10T18:05:03.040Z,60.13
2022-11-10T18:08:07.058Z,62.25
2022-11-10T18:11:14.440Z,63.33
2022-11-10T18:14:18.681Z,60.38
2022-11-10T18:17:23.159Z,58.83
2022-11-10T18:20:27.489Z,57.00
2022-11-10T18:23:32.559Z,55.88
2022-11-10T18:26:37.044Z,56.17
2022-11-10T18:29:41.600Z,56.90
2022-11-10T18:32:46.100Z,55.90
2022-11-10T18:35:50.688Z,53.13
2022-11-10T18:38:54.930Z,51.50
2022-11-10T18:42:00.008Z,52.60
2022-11-10T18:45:05.362Z,50.20
2022-11-10T18:48:10.023Z,48.00
2022-11-10T18:51:15.319Z,51.20
2022-11-10T18:54:19.679Z,48.92
2022-11-10T18:57:23.960Z,46.00
2022-11-10T19:00:27.988Z,47.45
2022-11-10T19:03:32.530Z,45.05
2022-11-10T19:06:37.020Z,43.33
2022-11-10T19:09:41.655Z,42.92
2022-11-10T19:12:45.904Z,45.67
2022-11-10T19:15:49.997Z,40.13
2022-11-10T19:18:54.789Z,43.13
2022-11-10T19:22:00.777Z,42.85
2022-11-10T19:25:09.364Z,41.35
2022-11-10T19:28:14.329Z,43.38
2022-11-10T19:31:19.662Z,38.55
2022-11-10T19:34:24.290Z,39.00
2022-11-10T19:37:32.159Z,36.17
2022-11-10T19:40:39.844Z,40.63
2022-11-10T19:43:47.492Z,37.88
2022-11-10T19:46:51.973Z,37.40
2022-11-10T19:49:56.362Z,37.28
2022-11-10T19:53:00.787Z,36.70
2022-11-10T19:56:09.212Z,34.90
2022-11-10T19:59:14.799Z,34.67
2022-11-10T20:02:19.462Z,33.35
2022-11-10T20:05:23.953Z,34.63
2022-11-10T20:08:28.640Z,33.78
2022-11-10T20:11:32.700Z,32.13
2022-11-10T20:14:37.343Z,31.98
2022-11-10T20:17:42.530Z,31.33
2022-11-10T20:20:47.000Z,30.00
2022-11-10T20:23:55.942Z,29.52
2022-11-10T20:27:00.110Z,29.70
2022-11-10T20:30:05.084Z,29.27
2022-11-10T20:33:09.540Z,29.20
2022-11-10T20:36:26.180Z,28.95
2022-11-10T20:39:30.422Z,28.35
2022-11-10T20:42:37.842Z,27.23
2022-11-10T20:45:46.484Z,28.42
2022-11-10T20:48:50.504Z,25.65
2022-11-10T20:51:59.656Z,25.52
2022-11-10T20:55:05.489Z,24.77
2022-11-10T20:58:09.680Z,25.98
2022-11-10T21:01:15.672Z,25.40
2022-11-10T21:04:20.311Z,25.58
2022-11-10T21:07:24.536Z,24.15
2022-11-10T21:10:28.820Z,23.17
2022-11-10T21:13:34.675Z,22.67
2022-11-10T21:16:38.941Z,23.80
2022-11-10T21:19:43.568Z,23.77
2022-11-10T21:22:48.089Z,22.90
2022-11-10T21:25:57.619Z,21.52
2022-11-10T21:29:02.861Z,21.23
2022-11-10T21:32:07.204Z,21.00
2022-11-10T21:35:11.356Z,20.77
2022-11-10T21:38:15.795Z,20.38
2022-11-10T21:41:20.426Z,20.08
2022-11-10T21:44:24.819Z,19.92
2022-11-10T21:47:28.979Z,18.73
2022-11-10T21:50:33.313Z,19.00
2022-11-10T21:53:42.314Z,19.13
2022-11-10T21:56:46.426Z,19.35
2022-11-10T21:59:50.877Z,16.55
2022-11-10T22:03:04.339Z,17.90
2022-11-10T22:06:16.877Z,17.80
2022-11-10T22:09:40.965Z,17.00
2022-11-10T22:13:03.953Z,16.80
2022-11-10T22:16:42.023Z,16.45
2022-11-10T22:19:46.456Z,16.63
2022-11-10T22:22:50.916Z,16.60
2022-11-10T22:25:55.373Z,15.55
2022-11-10T22:28:59.747Z,15.65
2022-11-10T22:32:04.497Z,14.80
2022-11-10T22:35:29.159Z,15.05
2022-11-10T22:38:36.080Z,14.18
2022-11-10T22:41:58.659Z,14.90
2022-11-10T22:45:03.444Z,13.60
2022-11-10T22:48:26.155Z,14.63
2022-11-10T22:51:31.392Z,13.23
2022-11-10T22:54:35.406Z,13.65
2022-11-10T22:57:39.673Z,13.57
2022-11-10T23:00:46.737Z,14.30
2022-11-10T23:03:51.480Z,13.63
2022-11-10T23:06:56.229Z,13.55
2022-11-10T23:10:00.359Z,12.30
2022-11-10T23:13:04.637Z,12.80
2022-11-10T23:16:11.653Z,12.75
2022-11-10T23:19:16.160Z,11.63
2022-11-10T23:22:20.891Z,12.50
2022-11-10T23:25:25.343Z,11.88
2022-11-10T23:28:31.378Z,11.85
2022-11-10T23:31:35.582Z,12.35
2022-11-10T23:34:40.045Z,11.05
2022-11-10T23:37:44.432Z,11.43
2022-11-10T23:40:48.937Z,11.40
2022-11-10T23:43:54.004Z,11.68
2022-11-10T23:46:58.149Z,10.65
2022-11-10T23:50:03.112Z,10.25
2022-11-10T23:53:07.207Z,10.70
2022-11-10T23:56:13.586Z,10.73
2022-11-10T23:59:17.953Z,10.70
